Startpagina
METAR-TAF:

METAR-TAF

Vliegvelden :

Wainwright, Alaska, Verenigde Staten

breedte: 64-50N, lengte: 147-37W, hoogte: 137 m

Actueel weer

Dit bericht is 52 minuten geleden gemaakt, om 22:58 UTC
Wind 9 kt uit het oostnoordoosten
Temperatuur 11°C
Vochtigheid 37%
Druk 1002 hPa
Zicht: 16.1 km
Onbewolkt

METAR: PAFB 212258Z AUTO 07009KT 10SM CLR 11/M03 A2959 RMK AO2 SLP025 T01111034

Tijdstip: 15:50 (23:50 UTC)

Verwachting

Verwachting geldig van 21 om 23 UTC tot 23 om 05 UTC
Wind 9 kt uit het noordnoordoosten
Zicht 10 km of meer
Weinig wolken op 10000 ft
Verspreide wolken op 20000 ft
Wijzigt naar
van 22 om 14 UTC tot 22 om 15 UTC
Wind 9 kt uit het noordnoordoosten
Zicht 10 km of meer
Gebroken wolken op 10000 ft
Gebroken wolken op 20000 ft

TAF: PAFB 2123/2305 03009KT 9999 FEW100 SCT200 QNH2957INS BECMG 2214/2215 03009KT 9999 BKN100 BKN200 QNH2960INS TX11/2123Z TNM01/2215Z

Waarnemingen en weersverwachtingen van meer dan 4000 vliegvelden (METAR en TAF).

De beschikbare stations zijn de gele en rode punten op de kaart.

Ga met uw muis naar het station om de naam te zien.

Klik dan om waarnemingen en weersverwachtingen te zien.

kaart wijzigen: klik op de groene knoppen met een zwart kruis om in te zoomen, op de groene knop met een streepje om uit te zoomen of op de groene pijlen voor aangrenzende kaarten.


METAR-TAF: